sensor_id;sensor_type;location;lat;lon;timestamp;P1;durP1;ratioP1;P2;durP2;ratioP2
74347;SDS011;62778;50.406;10.008;2022-08-19T00:00:06;22.73;;;14.93;;
74347;SDS011;62778;50.406;10.008;2022-08-19T00:01:04;17.08;;;12.93;;
74347;SDS011;62778;50.406;10.008;2022-08-19T00:02:00;19.08;;;13.23;;
74347;SDS011;62778;50.406;10.008;2022-08-19T00:02:55;18.70;;;12.77;;
74347;SDS011;62778;50.406;10.008;2022-08-19T00:03:50;17.43;;;12.53;;
74347;SDS011;62778;50.406;10.008;2022-08-19T00:04:46;20.90;;;14.20;;
74347;SDS011;62778;50.406;10.008;2022-08-19T00:05:43;19.27;;;12.90;;
74347;SDS011;62778;50.406;10.008;2022-08-19T00:06:39;16.60;;;11.53;;
74347;SDS011;62778;50.406;10.008;2022-08-19T00:07:36;20.20;;;14.15;;
74347;SDS011;62778;50.406;10.008;2022-08-19T00:08:32;19.25;;;13.07;;
74347;SDS011;62778;50.406;10.008;2022-08-19T00:09:28;16.47;;;12.10;;
74347;SDS011;62778;50.406;10.008;2022-08-19T00:10:23;20.03;;;14.27;;
74347;SDS011;62778;50.406;10.008;2022-08-19T00:11:19;20.05;;;13.02;;
74347;SDS011;62778;50.406;10.008;2022-08-19T00:12:15;20.52;;;13.82;;
74347;SDS011;62778;50.406;10.008;2022-08-19T00:13:10;16.50;;;11.97;;
74347;SDS011;62778;50.406;10.008;2022-08-19T00:14:06;17.17;;;12.70;;
74347;SDS011;62778;50.406;10.008;2022-08-19T00:15:04;17.55;;;13.40;;
74347;SDS011;62778;50.406;10.008;2022-08-19T00:16:01;19.45;;;13.30;;
74347;SDS011;62778;50.406;10.008;2022-08-19T00:16:57;19.52;;;13.68;;
74347;SDS011;62778;50.406;10.008;2022-08-19T00:17:52;19.67;;;12.50;;
74347;SDS011;62778;50.406;10.008;2022-08-19T00:18:49;21.00;;;14.52;;
74347;SDS011;62778;50.406;10.008;2022-08-19T00:19:44;16.73;;;12.50;;
74347;SDS011;62778;50.406;10.008;2022-08-19T00:20:39;17.63;;;11.93;;
74347;SDS011;62778;50.406;10.008;2022-08-19T00:21:35;18.53;;;13.13;;
74347;SDS011;62778;50.406;10.008;2022-08-19T00:22:34;16.80;;;12.15;;
74347;SDS011;62778;50.406;10.008;2022-08-19T00:23:29;18.73;;;13.37;;
74347;SDS011;62778;50.406;10.008;2022-08-19T00:24:25;20.93;;;14.07;;
74347;SDS011;62778;50.406;10.008;2022-08-19T00:25:23;16.50;;;11.97;;
74347;SDS011;62778;50.406;10.008;2022-08-19T00:26:18;16.58;;;12.05;;
74347;SDS011;62778;50.406;10.008;2022-08-19T00:27:14;17.17;;;12.10;;
74347;SDS011;62778;50.406;10.008;2022-08-19T00:28:10;17.63;;;12.63;;
74347;SDS011;62778;50.406;10.008;2022-08-19T00:29:06;17.45;;;12.00;;
74347;SDS011;62778;50.406;10.008;2022-08-19T00:30:03;19.52;;;13.65;;
74347;SDS011;62778;50.406;10.008;2022-08-19T00:31:00;15.80;;;11.73;;
74347;SDS011;62778;50.406;10.008;2022-08-19T00:31:56;17.88;;;11.38;;
74347;SDS011;62778;50.406;10.008;2022-08-19T00:32:53;18.25;;;12.45;;
74347;SDS011;62778;50.406;10.008;2022-08-19T00:33:50;16.88;;;10.80;;
74347;SDS011;62778;50.406;10.008;2022-08-19T00:34:45;16.93;;;11.03;;
74347;SDS011;62778;50.406;10.008;2022-08-19T00:35:41;17.25;;;11.65;;
74347;SDS011;62778;50.406;10.008;2022-08-19T00:36:36;19.43;;;12.10;;
74347;SDS011;62778;50.406;10.008;2022-08-19T00:37:32;17.08;;;12.23;;
74347;SDS011;62778;50.406;10.008;2022-08-19T00:38:29;18.25;;;12.73;;
74347;SDS011;62778;50.406;10.008;2022-08-19T00:39:25;20.83;;;13.20;;
74347;SDS011;62778;50.406;10.008;2022-08-19T00:40:21;19.73;;;14.02;;
74347;SDS011;62778;50.406;10.008;2022-08-19T00:41:17;17.85;;;12.07;;
74347;SDS011;62778;50.406;10.008;2022-08-19T00:42:16;16.50;;;12.17;;
74347;SDS011;62778;50.406;10.008;2022-08-19T00:43:12;17.42;;;11.63;;
74347;SDS011;62778;50.406;10.008;2022-08-19T00:44:10;18.73;;;12.60;;
74347;SDS011;62778;50.406;10.008;2022-08-19T00:45:09;17.27;;;11.63;;
74347;SDS011;62778;50.406;10.008;2022-08-19T00:46:06;19.17;;;13.50;;
74347;SDS011;62778;50.406;10.008;2022-08-19T00:47:02;16.10;;;11.95;;
74347;SDS011;62778;50.406;10.008;2022-08-19T00:47:57;17.27;;;12.13;;
74347;SDS011;62778;50.406;10.008;2022-08-19T00:48:53;17.13;;;11.90;;
74347;SDS011;62778;50.406;10.008;2022-08-19T00:49:51;19.08;;;12.60;;
74347;SDS011;62778;50.406;10.008;2022-08-19T00:50:48;16.33;;;11.65;;
74347;SDS011;62778;50.406;10.008;2022-08-19T00:51:47;20.45;;;15.27;;
74347;SDS011;62778;50.406;10.008;2022-08-19T00:52:45;19.98;;;14.73;;
74347;SDS011;62778;50.406;10.008;2022-08-19T00:53:43;17.58;;;11.63;;
74347;SDS011;62778;50.406;10.008;2022-08-19T00:54:38;18.83;;;13.53;;
74347;SDS011;62778;50.406;10.008;2022-08-19T00:55:34;21.63;;;14.85;;
74347;SDS011;62778;50.406;10.008;2022-08-19T00:56:30;21.47;;;15.33;;
74347;SDS011;62778;50.406;10.008;2022-08-19T00:57:30;22.17;;;15.98;;
74347;SDS011;62778;50.406;10.008;2022-08-19T00:58:30;20.27;;;13.68;;
74347;SDS011;62778;50.406;10.008;2022-08-19T00:59:26;17.33;;;12.10;;
74347;SDS011;62778;50.406;10.008;2022-08-19T01:00:23;20.65;;;13.93;;
74347;SDS011;62778;50.406;10.008;2022-08-19T01:01:20;18.38;;;12.18;;
74347;SDS011;62778;50.406;10.008;2022-08-19T01:02:15;17.50;;;12.27;;
74347;SDS011;62778;50.406;10.008;2022-08-19T01:03:13;22.88;;;14.63;;
74347;SDS011;62778;50.406;10.008;2022-08-19T01:04:11;18.92;;;13.07;;
74347;SDS011;62778;50.406;10.008;2022-08-19T01:05:08;21.20;;;15.00;;
74347;SDS011;62778;50.406;10.008;2022-08-19T01:06:06;23.98;;;15.98;;
74347;SDS011;62778;50.406;10.008;2022-08-19T01:07:02;19.03;;;13.27;;
74347;SDS011;62778;50.406;10.008;2022-08-19T01:07:59;22.30;;;14.98;;
74347;SDS011;62778;50.406;10.008;2022-08-19T01:08:56;21.33;;;15.50;;
74347;SDS011;62778;50.406;10.008;2022-08-19T01:09:51;23.23;;;17.30;;
74347;SDS011;62778;50.406;10.008;2022-08-19T01:10:48;21.60;;;16.00;;
74347;SDS011;62778;50.406;10.008;2022-08-19T01:11:46;23.85;;;16.17;;
74347;SDS011;62778;50.406;10.008;2022-08-19T01:12:41;21.40;;;16.05;;
74347;SDS011;62778;50.406;10.008;2022-08-19T01:13:37;17.97;;;12.77;;
74347;SDS011;62778;50.406;10.008;2022-08-19T01:14:32;20.57;;;13.47;;
74347;SDS011;62778;50.406;10.008;2022-08-19T01:15:29;20.13;;;13.98;;
74347;SDS011;62778;50.406;10.008;2022-08-19T01:16:35;23.77;;;15.82;;
74347;SDS011;62778;50.406;10.008;2022-08-19T01:17:32;23.95;;;15.65;;
74347;SDS011;62778;50.406;10.008;2022-08-19T01:18:29;21.10;;;15.10;;
74347;SDS011;62778;50.406;10.008;2022-08-19T01:19:29;19.17;;;14.18;;
74347;SDS011;62778;50.406;10.008;2022-08-19T01:20:27;19.15;;;13.43;;
74347;SDS011;62778;50.406;10.008;2022-08-19T01:21:37;21.60;;;15.83;;
74347;SDS011;62778;50.406;10.008;2022-08-19T01:22:49;20.13;;;13.70;;
74347;SDS011;62778;50.406;10.008;2022-08-19T01:23:46;20.13;;;12.93;;
74347;SDS011;62778;50.406;10.008;2022-08-19T01:24:42;19.87;;;12.90;;
74347;SDS011;62778;50.406;10.008;2022-08-19T01:25:40;24.38;;;16.50;;
74347;SDS011;62778;50.406;10.008;2022-08-19T01:26:39;25.13;;;17.45;;
74347;SDS011;62778;50.406;10.008;2022-08-19T01:27:40;25.52;;;16.95;;
74347;SDS011;62778;50.406;10.008;2022-08-19T01:28:36;23.70;;;17.33;;
74347;SDS011;62778;50.406;10.008;2022-08-19T01:29:33;23.40;;;16.52;;
74347;SDS011;62778;50.406;10.008;2022-08-19T01:30:31;24.98;;;18.05;;
74347;SDS011;62778;50.406;10.008;2022-08-19T01:31:28;22.45;;;16.83;;
74347;SDS011;62778;50.406;10.008;2022-08-19T01:32:25;22.90;;;16.70;;
74347;SDS011;62778;50.406;10.008;2022-08-19T01:33:21;21.80;;;16.23;;
74347;SDS011;62778;50.406;10.008;2022-08-19T01:34:16;24.48;;;16.73;;
74347;SDS011;62778;50.406;10.008;2022-08-19T01:35:11;24.43;;;17.63;;
74347;SDS011;62778;50.406;10.008;2022-08-19T01:36:09;23.80;;;17.65;;
74347;SDS011;62778;50.406;10.008;2022-08-19T01:37:10;25.27;;;18.00;;
74347;SDS011;62778;50.406;10.008;2022-08-19T01:38:07;24.92;;;17.73;;
74347;SDS011;62778;50.406;10.008;2022-08-19T01:39:07;24.67;;;17.15;;
74347;SDS011;62778;50.406;10.008;2022-08-19T01:40:05;23.30;;;17.88;;
74347;SDS011;62778;50.406;10.008;2022-08-19T01:41:01;25.88;;;17.58;;
74347;SDS011;62778;50.406;10.008;2022-08-19T01:41:56;26.00;;;18.57;;
74347;SDS011;62778;50.406;10.008;2022-08-19T01:42:52;24.47;;;16.77;;
74347;SDS011;62778;50.406;10.008;2022-08-19T01:43:48;27.15;;;19.08;;
74347;SDS011;62778;50.406;10.008;2022-08-19T01:44:44;29.00;;;19.77;;
74347;SDS011;62778;50.406;10.008;2022-08-19T01:45:40;24.80;;;16.43;;
74347;SDS011;62778;50.406;10.008;2022-08-19T01:46:36;27.73;;;19.67;;
74347;SDS011;62778;50.406;10.008;2022-08-19T01:47:31;27.83;;;20.20;;
74347;SDS011;62778;50.406;10.008;2022-08-19T01:48:27;24.63;;;16.47;;
74347;SDS011;62778;50.406;10.008;2022-08-19T01:49:28;23.52;;;16.08;;
74347;SDS011;62778;50.406;10.008;2022-08-19T01:50:23;29.00;;;20.70;;
74347;SDS011;62778;50.406;10.008;2022-08-19T01:51:19;22.05;;;15.68;;
74347;SDS011;62778;50.406;10.008;2022-08-19T01:52:14;27.07;;;19.23;;
74347;SDS011;62778;50.406;10.008;2022-08-19T01:53:10;22.70;;;15.90;;
74347;SDS011;62778;50.406;10.008;2022-08-19T01:54:07;23.43;;;16.90;;
74347;SDS011;62778;50.406;10.008;2022-08-19T01:55:04;20.13;;;14.23;;
74347;SDS011;62778;50.406;10.008;2022-08-19T01:56:01;21.40;;;15.93;;
74347;SDS011;62778;50.406;10.008;2022-08-19T01:56:58;20.10;;;14.15;;
74347;SDS011;62778;50.406;10.008;2022-08-19T01:58:00;23.15;;;15.73;;
74347;SDS011;62778;50.406;10.008;2022-08-19T01:58:59;27.58;;;19.05;;
74347;SDS011;62778;50.406;10.008;2022-08-19T01:59:57;23.58;;;16.48;;
74347;SDS011;62778;50.406;10.008;2022-08-19T02:00:52;22.03;;;15.03;;
74347;SDS011;62778;50.406;10.008;2022-08-19T02:01:48;23.33;;;16.00;;
74347;SDS011;62778;50.406;10.008;2022-08-19T02:02:43;28.73;;;19.88;;
74347;SDS011;62778;50.406;10.008;2022-08-19T02:03:39;23.13;;;15.00;;
74347;SDS011;62778;50.406;10.008;2022-08-19T02:04:34;23.93;;;17.10;;
74347;SDS011;62778;50.406;10.008;2022-08-19T02:05:30;23.85;;;15.27;;
74347;SDS011;62778;50.406;10.008;2022-08-19T02:06:26;29.07;;;15.30;;
74347;SDS011;62778;50.406;10.008;2022-08-19T02:07:22;20.63;;;14.70;;
74347;SDS011;62778;50.406;10.008;2022-08-19T02:08:17;22.88;;;14.15;;
74347;SDS011;62778;50.406;10.008;2022-08-19T02:09:12;24.00;;;16.00;;
74347;SDS011;62778;50.406;10.008;2022-08-19T02:10:09;25.47;;;16.87;;
74347;SDS011;62778;50.406;10.008;2022-08-19T02:11:07;23.67;;;15.80;;
74347;SDS011;62778;50.406;10.008;2022-08-19T02:12:03;23.33;;;15.50;;
74347;SDS011;62778;50.406;10.008;2022-08-19T02:12:59;22.23;;;15.23;;
74347;SDS011;62778;50.406;10.008;2022-08-19T02:13:54;23.77;;;15.90;;
74347;SDS011;62778;50.406;10.008;2022-08-19T02:14:50;26.23;;;17.43;;
74347;SDS011;62778;50.406;10.008;2022-08-19T02:15:45;24.73;;;15.67;;
74347;SDS011;62778;50.406;10.008;2022-08-19T02:16:41;25.63;;;17.83;;
74347;SDS011;62778;50.406;10.008;2022-08-19T02:17:36;21.50;;;14.77;;
74347;SDS011;62778;50.406;10.008;2022-08-19T02:18:31;25.43;;;17.93;;
74347;SDS011;62778;50.406;10.008;2022-08-19T02:19:27;23.33;;;15.80;;
74347;SDS011;62778;50.406;10.008;2022-08-19T02:20:23;24.37;;;16.90;;
74347;SDS011;62778;50.406;10.008;2022-08-19T02:21:19;24.42;;;16.08;;
74347;SDS011;62778;50.406;10.008;2022-08-19T02:22:16;25.20;;;18.00;;
74347;SDS011;62778;50.406;10.008;2022-08-19T02:23:11;27.93;;;20.10;;
74347;SDS011;62778;50.406;10.008;2022-08-19T02:24:06;28.50;;;20.23;;
74347;SDS011;62778;50.406;10.008;2022-08-19T02:25:02;27.90;;;20.10;;
74347;SDS011;62778;50.406;10.008;2022-08-19T02:25:59;25.52;;;17.73;;
74347;SDS011;62778;50.406;10.008;2022-08-19T02:26:55;30.50;;;21.33;;
74347;SDS011;62778;50.406;10.008;2022-08-19T02:27:50;29.40;;;19.50;;
74347;SDS011;62778;50.406;10.008;2022-08-19T02:28:45;28.70;;;20.80;;
74347;SDS011;62778;50.406;10.008;2022-08-19T02:29:41;31.50;;;21.17;;
74347;SDS011;62778;50.406;10.008;2022-08-19T02:30:36;30.97;;;21.70;;
74347;SDS011;62778;50.406;10.008;2022-08-19T02:31:33;30.75;;;22.38;;
74347;SDS011;62778;50.406;10.008;2022-08-19T02:32:28;29.63;;;22.30;;
74347;SDS011;62778;50.406;10.008;2022-08-19T02:33:25;29.40;;;20.90;;
74347;SDS011;62778;50.406;10.008;2022-08-19T02:34:20;30.03;;;21.67;;
74347;SDS011;62778;50.406;10.008;2022-08-19T02:35:16;30.65;;;22.25;;
74347;SDS011;62778;50.406;10.008;2022-08-19T02:36:12;29.70;;;20.70;;
74347;SDS011;62778;50.406;10.008;2022-08-19T02:37:09;30.40;;;21.48;;
74347;SDS011;62778;50.406;10.008;2022-08-19T02:38:25;27.40;;;18.58;;
74347;SDS011;62778;50.406;10.008;2022-08-19T02:39:20;29.53;;;21.00;;
74347;SDS011;62778;50.406;10.008;2022-08-19T02:40:15;31.95;;;22.27;;
74347;SDS011;62778;50.406;10.008;2022-08-19T02:41:15;29.92;;;21.40;;
74347;SDS011;62778;50.406;10.008;2022-08-19T02:42:12;28.37;;;20.27;;
74347;SDS011;62778;50.406;10.008;2022-08-19T02:43:08;28.08;;;18.63;;
74347;SDS011;62778;50.406;10.008;2022-08-19T02:44:04;30.27;;;21.60;;
74347;SDS011;62778;50.406;10.008;2022-08-19T02:44:59;28.30;;;20.45;;
74347;SDS011;62778;50.406;10.008;2022-08-19T02:45:55;34.38;;;21.23;;
74347;SDS011;62778;50.406;10.008;2022-08-19T02:46:50;28.40;;;20.50;;
74347;SDS011;62778;50.406;10.008;2022-08-19T02:47:46;27.93;;;19.37;;
74347;SDS011;62778;50.406;10.008;2022-08-19T02:48:41;28.35;;;20.38;;
74347;SDS011;62778;50.406;10.008;2022-08-19T02:49:36;28.37;;;21.23;;
74347;SDS011;62778;50.406;10.008;2022-08-19T02:50:32;32.70;;;23.00;;
74347;SDS011;62778;50.406;10.008;2022-08-19T02:51:28;30.87;;;21.57;;
74347;SDS011;62778;50.406;10.008;2022-08-19T02:52:31;32.05;;;23.17;;
74347;SDS011;62778;50.406;10.008;2022-08-19T02:53:27;33.20;;;23.42;;
74347;SDS011;62778;50.406;10.008;2022-08-19T02:54:23;31.13;;;21.80;;
74347;SDS011;62778;50.406;10.008;2022-08-19T02:55:18;29.43;;;20.60;;
74347;SDS011;62778;50.406;10.008;2022-08-19T02:56:14;31.13;;;21.55;;
74347;SDS011;62778;50.406;10.008;2022-08-19T02:57:09;31.33;;;22.03;;
74347;SDS011;62778;50.406;10.008;2022-08-19T02:58:05;31.80;;;23.35;;
74347;SDS011;62778;50.406;10.008;2022-08-19T02:59:01;31.27;;;23.07;;
74347;SDS011;62778;50.406;10.008;2022-08-19T02:59:57;32.08;;;22.40;;
74347;SDS011;62778;50.406;10.008;2022-08-19T03:00:54;29.52;;;21.60;;
74347;SDS011;62778;50.406;10.008;2022-08-19T03:01:50;34.70;;;23.65;;
74347;SDS011;62778;50.406;10.008;2022-08-19T03:02:46;31.37;;;20.73;;
74347;SDS011;62778;50.406;10.008;2022-08-19T03:03:41;29.10;;;19.45;;
74347;SDS011;62778;50.406;10.008;2022-08-19T03:04:37;32.20;;;20.67;;
74347;SDS011;62778;50.406;10.008;2022-08-19T03:05:32;32.57;;;22.77;;
74347;SDS011;62778;50.406;10.008;2022-08-19T03:06:28;30.42;;;22.20;;
74347;SDS011;62778;50.406;10.008;2022-08-19T03:07:23;32.33;;;21.70;;
74347;SDS011;62778;50.406;10.008;2022-08-19T03:08:19;33.47;;;23.00;;
74347;SDS011;62778;50.406;10.008;2022-08-19T03:09:14;33.17;;;22.50;;
74347;SDS011;62778;50.406;10.008;2022-08-19T03:10:10;33.17;;;23.63;;
74347;SDS011;62778;50.406;10.008;2022-08-19T03:11:05;33.50;;;23.50;;
74347;SDS011;62778;50.406;10.008;2022-08-19T03:12:02;32.17;;;23.45;;
74347;SDS011;62778;50.406;10.008;2022-08-19T03:12:58;32.30;;;22.07;;
74347;SDS011;62778;50.406;10.008;2022-08-19T03:13:53;32.60;;;21.90;;
74347;SDS011;62778;50.406;10.008;2022-08-19T03:14:49;31.83;;;22.43;;
74347;SDS011;62778;50.406;10.008;2022-08-19T03:15:46;29.92;;;21.45;;
74347;SDS011;62778;50.406;10.008;2022-08-19T03:16:43;31.70;;;22.98;;
74347;SDS011;62778;50.406;10.008;2022-08-19T03:17:40;33.67;;;23.48;;
74347;SDS011;62778;50.406;10.008;2022-08-19T03:18:35;33.33;;;22.93;;
74347;SDS011;62778;50.406;10.008;2022-08-19T03:19:31;35.83;;;24.30;;
74347;SDS011;62778;50.406;10.008;2022-08-19T03:20:26;32.15;;;23.55;;
74347;SDS011;62778;50.406;10.008;2022-08-19T03:21:22;34.20;;;25.67;;
74347;SDS011;62778;50.406;10.008;2022-08-19T03:22:19;36.45;;;25.50;;
74347;SDS011;62778;50.406;10.008;2022-08-19T03:23:15;34.53;;;25.10;;
74347;SDS011;62778;50.406;10.008;2022-08-19T03:24:11;33.08;;;23.33;;
74347;SDS011;62778;50.406;10.008;2022-08-19T03:25:08;34.20;;;24.75;;
74347;SDS011;62778;50.406;10.008;2022-08-19T03:26:04;33.27;;;25.53;;
74347;SDS011;62778;50.406;10.008;2022-08-19T03:27:00;35.75;;;24.13;;
74347;SDS011;62778;50.406;10.008;2022-08-19T03:27:59;33.47;;;22.65;;
74347;SDS011;62778;50.406;10.008;2022-08-19T03:28:55;35.10;;;24.13;;
74347;SDS011;62778;50.406;10.008;2022-08-19T03:29:51;34.60;;;25.00;;
74347;SDS011;62778;50.406;10.008;2022-08-19T03:30:57;33.42;;;24.92;;
74347;SDS011;62778;50.406;10.008;2022-08-19T03:32:00;33.78;;;24.33;;
74347;SDS011;62778;50.406;10.008;2022-08-19T03:32:57;33.47;;;24.52;;
74347;SDS011;62778;50.406;10.008;2022-08-19T03:33:53;32.77;;;23.43;;
74347;SDS011;62778;50.406;10.008;2022-08-19T03:34:48;33.97;;;23.17;;
74347;SDS011;62778;50.406;10.008;2022-08-19T03:35:44;34.33;;;24.20;;
74347;SDS011;62778;50.406;10.008;2022-08-19T03:36:40;33.10;;;23.53;;
74347;SDS011;62778;50.406;10.008;2022-08-19T03:37:35;34.42;;;23.45;;
74347;SDS011;62778;50.406;10.008;2022-08-19T03:38:31;33.33;;;24.37;;
74347;SDS011;62778;50.406;10.008;2022-08-19T03:39:27;34.25;;;24.85;;
74347;SDS011;62778;50.406;10.008;2022-08-19T03:40:22;34.23;;;24.00;;
74347;SDS011;62778;50.406;10.008;2022-08-19T03:41:19;33.30;;;23.20;;
74347;SDS011;62778;50.406;10.008;2022-08-19T03:42:17;33.30;;;23.13;;
74347;SDS011;62778;50.406;10.008;2022-08-19T03:43:12;32.20;;;22.30;;
74347;SDS011;62778;50.406;10.008;2022-08-19T03:44:08;35.30;;;23.63;;
74347;SDS011;62778;50.406;10.008;2022-08-19T03:45:03;32.63;;;23.42;;
74347;SDS011;62778;50.406;10.008;2022-08-19T03:46:03;32.53;;;22.90;;
74347;SDS011;62778;50.406;10.008;2022-08-19T03:47:00;33.78;;;23.38;;
74347;SDS011;62778;50.406;10.008;2022-08-19T03:47:56;35.23;;;25.07;;
74347;SDS011;62778;50.406;10.008;2022-08-19T03:48:52;32.42;;;25.20;;
74347;SDS011;62778;50.406;10.008;2022-08-19T03:49:51;33.05;;;22.77;;
74347;SDS011;62778;50.406;10.008;2022-08-19T03:50:46;34.77;;;24.23;;
74347;SDS011;62778;50.406;10.008;2022-08-19T03:51:42;32.50;;;23.47;;
74347;SDS011;62778;50.406;10.008;2022-08-19T03:52:38;30.85;;;22.08;;
74347;SDS011;62778;50.406;10.008;2022-08-19T03:53:34;32.08;;;23.55;;
74347;SDS011;62778;50.406;10.008;2022-08-19T03:54:30;31.25;;;22.20;;
74347;SDS011;62778;50.406;10.008;2022-08-19T03:55:25;32.50;;;22.60;;
74347;SDS011;62778;50.406;10.008;2022-08-19T03:56:21;27.07;;;19.70;;
74347;SDS011;62778;50.406;10.008;2022-08-19T03:57:17;30.83;;;20.73;;
74347;SDS011;62778;50.406;10.008;2022-08-19T03:58:12;32.13;;;24.03;;
74347;SDS011;62778;50.406;10.008;2022-08-19T03:59:08;30.13;;;21.83;;
74347;SDS011;62778;50.406;10.008;2022-08-19T04:00:05;34.50;;;24.75;;
74347;SDS011;62778;50.406;10.008;2022-08-19T04:01:02;34.13;;;24.40;;
74347;SDS011;62778;50.406;10.008;2022-08-19T04:02:00;36.05;;;24.02;;
74347;SDS011;62778;50.406;10.008;2022-08-19T04:03:03;35.13;;;24.98;;
74347;SDS011;62778;50.406;10.008;2022-08-19T04:03:59;33.97;;;24.33;;
74347;SDS011;62778;50.406;10.008;2022-08-19T04:04:54;33.07;;;24.13;;
74347;SDS011;62778;50.406;10.008;2022-08-19T04:05:50;32.97;;;23.00;;
74347;SDS011;62778;50.406;10.008;2022-08-19T04:06:45;33.70;;;24.43;;
74347;SDS011;62778;50.406;10.008;2022-08-19T04:07:42;33.97;;;20.85;;
74347;SDS011;62778;50.406;10.008;2022-08-19T04:08:37;35.33;;;24.43;;
74347;SDS011;62778;50.406;10.008;2022-08-19T04:09:34;32.47;;;24.63;;
74347;SDS011;62778;50.406;10.008;2022-08-19T04:10:35;34.22;;;25.23;;
74347;SDS011;62778;50.406;10.008;2022-08-19T04:11:33;34.15;;;25.13;;
74347;SDS011;62778;50.406;10.008;2022-08-19T04:12:30;35.67;;;24.15;;
74347;SDS011;62778;50.406;10.008;2022-08-19T04:13:25;34.43;;;23.47;;
74347;SDS011;62778;50.406;10.008;2022-08-19T04:14:22;30.48;;;20.60;;
74347;SDS011;62778;50.406;10.008;2022-08-19T04:15:19;33.80;;;24.13;;
74347;SDS011;62778;50.406;10.008;2022-08-19T04:16:15;34.20;;;24.45;;
74347;SDS011;62778;50.406;10.008;2022-08-19T04:17:10;35.80;;;26.73;;
74347;SDS011;62778;50.406;10.008;2022-08-19T04:18:08;37.53;;;24.98;;
74347;SDS011;62778;50.406;10.008;2022-08-19T04:19:04;35.83;;;25.95;;
74347;SDS011;62778;50.406;10.008;2022-08-19T04:20:00;36.20;;;25.50;;
74347;SDS011;62778;50.406;10.008;2022-08-19T04:20:55;36.92;;;26.50;;
74347;SDS011;62778;50.406;10.008;2022-08-19T04:21:53;37.40;;;26.10;;
74347;SDS011;62778;50.406;10.008;2022-08-19T04:22:49;32.95;;;23.88;;
74347;SDS011;62778;50.406;10.008;2022-08-19T04:23:44;36.57;;;24.57;;
74347;SDS011;62778;50.406;10.008;2022-08-19T04:24:39;38.08;;;25.52;;
74347;SDS011;62778;50.406;10.008;2022-08-19T04:25:38;34.37;;;24.57;;
74347;SDS011;62778;50.406;10.008;2022-08-19T04:26:35;32.13;;;22.23;;
74347;SDS011;62778;50.406;10.008;2022-08-19T04:27:31;36.03;;;23.95;;
74347;SDS011;62778;50.406;10.008;2022-08-19T04:28:28;36.10;;;25.00;;
74347;SDS011;62778;50.406;10.008;2022-08-19T04:29:24;26.17;;;17.90;;
74347;SDS011;62778;50.406;10.008;2022-08-19T04:30:21;31.85;;;21.58;;
74347;SDS011;62778;50.406;10.008;2022-08-19T04:31:21;26.70;;;18.08;;
74347;SDS011;62778;50.406;10.008;2022-08-19T04:32:20;36.05;;;24.15;;
74347;SDS011;62778;50.406;10.008;2022-08-19T04:33:18;35.10;;;22.88;;
74347;SDS011;62778;50.406;10.008;2022-08-19T04:34:15;33.53;;;23.70;;
74347;SDS011;62778;50.406;10.008;2022-08-19T04:35:12;34.72;;;23.33;;
74347;SDS011;62778;50.406;10.008;2022-08-19T04:36:07;26.13;;;17.50;;
74347;SDS011;62778;50.406;10.008;2022-08-19T04:37:04;26.67;;;17.30;;
74347;SDS011;62778;50.406;10.008;2022-08-19T04:38:02;31.40;;;21.27;;
74347;SDS011;62778;50.406;10.008;2022-08-19T04:39:02;34.08;;;23.30;;
74347;SDS011;62778;50.406;10.008;2022-08-19T04:39:59;26.83;;;18.60;;
74347;SDS011;62778;50.406;10.008;2022-08-19T04:41:13;26.33;;;17.83;;
74347;SDS011;62778;50.406;10.008;2022-08-19T04:42:28;24.02;;;15.88;;
74347;SDS011;62778;50.406;10.008;2022-08-19T04:43:36;33.60;;;22.17;;
74347;SDS011;62778;50.406;10.008;2022-08-19T04:44:33;32.72;;;22.05;;
74347;SDS011;62778;50.406;10.008;2022-08-19T04:45:29;31.23;;;20.75;;
74347;SDS011;62778;50.406;10.008;2022-08-19T04:46:24;24.77;;;15.90;;
74347;SDS011;62778;50.406;10.008;2022-08-19T04:47:20;26.80;;;18.13;;
74347;SDS011;62778;50.406;10.008;2022-08-19T04:48:15;32.73;;;22.73;;
74347;SDS011;62778;50.406;10.008;2022-08-19T04:49:12;33.28;;;20.30;;
74347;SDS011;62778;50.406;10.008;2022-08-19T04:50:08;28.17;;;17.47;;
74347;SDS011;62778;50.406;10.008;2022-08-19T04:51:07;27.65;;;19.10;;
74347;SDS011;62778;50.406;10.008;2022-08-19T04:52:03;29.30;;;19.08;;
74347;SDS011;62778;50.406;10.008;2022-08-19T04:52:58;24.80;;;17.53;;
74347;SDS011;62778;50.406;10.008;2022-08-19T04:53:54;23.50;;;15.83;;
74347;SDS011;62778;50.406;10.008;2022-08-19T04:54:49;25.90;;;17.85;;
74347;SDS011;62778;50.406;10.008;2022-08-19T04:55:44;25.63;;;17.93;;
74347;SDS011;62778;50.406;10.008;2022-08-19T04:56:40;24.10;;;15.93;;
74347;SDS011;62778;50.406;10.008;2022-08-19T04:57:35;22.87;;;15.83;;
74347;SDS011;62778;50.406;10.008;2022-08-19T04:58:34;23.83;;;15.80;;
74347;SDS011;62778;50.406;10.008;2022-08-19T04:59:30;22.77;;;16.05;;
74347;SDS011;62778;50.406;10.008;2022-08-19T05:00:25;21.43;;;14.00;;
74347;SDS011;62778;50.406;10.008;2022-08-19T05:01:22;25.27;;;17.63;;
74347;SDS011;62778;50.406;10.008;2022-08-19T05:02:20;26.55;;;18.25;;
74347;SDS011;62778;50.406;10.008;2022-08-19T05:03:20;20.33;;;14.52;;
74347;SDS011;62778;50.406;10.008;2022-08-19T05:04:19;25.63;;;17.27;;
74347;SDS011;62778;50.406;10.008;2022-08-19T05:05:15;20.13;;;14.55;;
74347;SDS011;62778;50.406;10.008;2022-08-19T05:06:11;20.13;;;13.50;;
74347;SDS011;62778;50.406;10.008;2022-08-19T05:07:07;26.95;;;19.25;;
74347;SDS011;62778;50.406;10.008;2022-08-19T05:08:04;25.48;;;17.45;;
74347;SDS011;62778;50.406;10.008;2022-08-19T05:09:02;27.40;;;18.13;;
74347;SDS011;62778;50.406;10.008;2022-08-19T05:09:58;21.20;;;14.70;;
74347;SDS011;62778;50.406;10.008;2022-08-19T05:10:53;23.23;;;15.17;;
74347;SDS011;62778;50.406;10.008;2022-08-19T05:11:49;21.93;;;15.83;;
74347;SDS011;62778;50.406;10.008;2022-08-19T05:12:48;25.13;;;18.48;;
74347;SDS011;62778;50.406;10.008;2022-08-19T05:13:44;21.30;;;15.10;;
74347;SDS011;62778;50.406;10.008;2022-08-19T05:14:39;21.25;;;15.43;;
74347;SDS011;62778;50.406;10.008;2022-08-19T05:15:34;20.27;;;15.30;;
74347;SDS011;62778;50.406;10.008;2022-08-19T05:16:30;21.30;;;15.63;;
74347;SDS011;62778;50.406;10.008;2022-08-19T05:17:26;18.27;;;13.47;;
74347;SDS011;62778;50.406;10.008;2022-08-19T05:18:22;20.40;;;15.35;;
74347;SDS011;62778;50.406;10.008;2022-08-19T05:19:36;19.75;;;13.60;;
74347;SDS011;62778;50.406;10.008;2022-08-19T05:20:49;21.55;;;15.82;;
74347;SDS011;62778;50.406;10.008;2022-08-19T05:22:03;27.65;;;19.88;;
74347;SDS011;62778;50.406;10.008;2022-08-19T05:23:17;26.70;;;20.00;;
74347;SDS011;62778;50.406;10.008;2022-08-19T05:24:13;21.07;;;15.23;;
74347;SDS011;62778;50.406;10.008;2022-08-19T05:25:13;22.40;;;15.90;;
74347;SDS011;62778;50.406;10.008;2022-08-19T05:26:10;18.80;;;13.38;;
74347;SDS011;62778;50.406;10.008;2022-08-19T05:27:06;20.80;;;15.00;;
74347;SDS011;62778;50.406;10.008;2022-08-19T05:28:01;19.50;;;14.13;;